createdAt,value
2023-04-17T00:01:04.941Z,22.73
2023-04-17T00:03:32.333Z,23.67
2023-04-17T00:05:59.441Z,25.58
2023-04-17T00:08:26.261Z,23.67
2023-04-17T00:11:04.142Z,23.80
2023-04-17T00:13:33.849Z,24.17
2023-04-17T00:16:00.844Z,24.53
2023-04-17T00:18:27.748Z,24.17
2023-04-17T00:20:56.794Z,24.30
2023-04-17T00:23:23.856Z,24.83
2023-04-17T00:25:50.982Z,25.63
2023-04-17T00:28:18.369Z,23.53
2023-04-17T00:30:47.779Z,22.20
2023-04-17T00:33:15.089Z,21.42
2023-04-17T00:35:48.119Z,25.17
2023-04-17T00:38:16.321Z,23.13
2023-04-17T00:40:48.240Z,23.23
2023-04-17T00:43:15.477Z,23.38
2023-04-17T00:45:42.504Z,22.83
2023-04-17T00:48:10.844Z,23.40
2023-04-17T00:50:38.372Z,23.20
2023-04-17T00:53:05.742Z,22.50
2023-04-17T00:55:34.880Z,24.08
2023-04-17T00:58:02.324Z,25.25
2023-04-17T01:00:29.137Z,22.13
2023-04-17T01:02:58.183Z,24.20
2023-04-17T01:05:28.566Z,24.00
2023-04-17T01:07:57.533Z,24.80
2023-04-17T01:10:24.404Z,25.50
2023-04-17T01:13:05.336Z,25.00
2023-04-17T01:15:34.079Z,22.90
2023-04-17T01:18:01.254Z,24.03
2023-04-17T01:20:32.029Z,22.75
2023-04-17T01:23:00.150Z,24.73
2023-04-17T01:25:28.216Z,22.63
2023-04-17T01:27:56.537Z,22.73
2023-04-17T01:30:23.988Z,23.60
2023-04-17T01:32:56.409Z,20.75
2023-04-17T01:35:23.437Z,21.50
2023-04-17T01:37:50.358Z,22.02
2023-04-17T01:40:17.393Z,19.88
2023-04-17T01:42:45.378Z,21.27
2023-04-17T01:45:12.446Z,21.33
2023-04-17T01:47:40.717Z,22.15
2023-04-17T01:50:09.274Z,22.55
2023-04-17T01:52:36.940Z,21.52
2023-04-17T01:55:04.299Z,23.37
2023-04-17T01:57:33.262Z,22.92
2023-04-17T02:00:00.584Z,21.45
2023-04-17T02:02:27.659Z,22.65
2023-04-17T02:04:54.862Z,21.10
2023-04-17T02:07:21.958Z,20.50
2023-04-17T02:09:48.919Z,21.70
2023-04-17T02:12:17.795Z,21.45
2023-04-17T02:14:44.723Z,20.50
2023-04-17T02:17:11.593Z,19.88
2023-04-17T02:19:38.711Z,20.83
2023-04-17T02:22:05.637Z,19.77
2023-04-17T02:24:32.617Z,20.10
2023-04-17T02:27:00.892Z,20.10
2023-04-17T02:29:27.793Z,18.73
2023-04-17T02:31:56.053Z,18.57
2023-04-17T02:34:22.937Z,18.75
2023-04-17T02:36:55.098Z,18.63
2023-04-17T02:39:23.713Z,18.92
2023-04-17T02:41:50.922Z,19.33
2023-04-17T02:44:18.462Z,19.87
2023-04-17T02:46:45.483Z,19.48
2023-04-17T02:49:13.503Z,20.48
2023-04-17T02:51:40.719Z,19.35
2023-04-17T02:54:07.663Z,19.23
2023-04-17T02:56:34.580Z,18.67
2023-04-17T02:59:01.530Z,17.45
2023-04-17T03:01:29.936Z,17.88
2023-04-17T03:03:57.377Z,19.00
2023-04-17T03:06:24.519Z,17.92
2023-04-17T03:08:51.532Z,18.83
2023-04-17T03:11:18.628Z,17.45
2023-04-17T03:13:45.625Z,18.98
2023-04-17T03:16:14.319Z,18.88
2023-04-17T03:18:43.027Z,17.38
2023-04-17T03:21:10.044Z,19.00
2023-04-17T03:23:37.219Z,19.00
2023-04-17T03:26:06.038Z,16.98
2023-04-17T03:28:33.755Z,17.13
2023-04-17T03:31:01.945Z,18.17
2023-04-17T03:33:30.690Z,20.10
2023-04-17T03:35:58.546Z,19.33
2023-04-17T03:38:26.238Z,18.63
2023-04-17T03:40:56.532Z,18.02
2023-04-17T03:43:25.312Z,18.98
2023-04-17T03:45:52.205Z,20.63
2023-04-17T03:48:19.277Z,19.70
2023-04-17T03:50:48.423Z,19.20
2023-04-17T03:53:15.938Z,19.65
2023-04-17T03:55:42.859Z,20.88
2023-04-17T03:58:16.498Z,20.70
2023-04-17T04:00:45.741Z,20.10
2023-04-17T04:03:14.018Z,20.98
2023-04-17T04:05:42.296Z,20.88
2023-04-17T04:08:10.934Z,19.55
2023-04-17T04:10:50.997Z,21.60
2023-04-17T04:13:23.100Z,21.15
2023-04-17T04:15:55.336Z,22.80
2023-04-17T04:18:25.385Z,21.00
2023-04-17T04:20:52.953Z,21.13
2023-04-17T04:23:28.184Z,21.60
2023-04-17T04:25:57.316Z,21.65
2023-04-17T04:28:32.189Z,24.00
2023-04-17T04:31:00.267Z,23.23
2023-04-17T04:33:31.467Z,22.52
2023-04-17T04:36:01.390Z,21.97
2023-04-17T04:38:32.707Z,22.38
2023-04-17T04:41:10.649Z,23.90
2023-04-17T04:43:40.714Z,21.42
2023-04-17T04:46:10.596Z,23.02
2023-04-17T04:48:43.006Z,24.20
2023-04-17T04:51:10.481Z,25.45
2023-04-17T04:53:39.055Z,24.00
2023-04-17T04:56:06.417Z,25.27
2023-04-17T04:58:34.834Z,23.77
2023-04-17T05:01:04.220Z,25.10
2023-04-17T05:03:37.470Z,25.20
2023-04-17T05:06:06.104Z,24.50
2023-04-17T05:08:45.176Z,24.30
2023-04-17T05:11:15.831Z,25.17
2023-04-17T05:13:43.249Z,24.37
2023-04-17T05:16:18.042Z,23.27
2023-04-17T05:18:48.065Z,25.63
2023-04-17T05:21:18.546Z,26.70
2023-04-17T05:23:48.859Z,23.80
2023-04-17T05:26:15.740Z,25.70
2023-04-17T05:28:45.365Z,23.63
2023-04-17T05:31:15.995Z,22.55
2023-04-17T05:33:43.419Z,24.13
2023-04-17T05:36:10.628Z,23.15
2023-04-17T05:38:40.010Z,23.90
2023-04-17T05:41:09.062Z,23.35
2023-04-17T05:43:37.312Z,21.17
2023-04-17T05:46:04.769Z,25.92
2023-04-17T05:48:32.335Z,24.23
2023-04-17T05:50:59.208Z,23.70
2023-04-17T05:53:26.553Z,24.88
2023-04-17T05:55:57.251Z,23.13
2023-04-17T05:58:24.905Z,23.92
2023-04-17T06:00:56.063Z,24.67
2023-04-17T06:03:24.354Z,24.47
2023-04-17T06:05:58.306Z,24.45
2023-04-17T06:08:25.531Z,24.88
2023-04-17T06:10:52.744Z,24.77
2023-04-17T06:13:19.996Z,23.90
2023-04-17T06:15:51.409Z,23.57
2023-04-17T06:18:18.941Z,22.38
2023-04-17T06:20:46.389Z,25.30
2023-04-17T06:23:13.468Z,23.75
2023-04-17T06:25:40.613Z,23.48
2023-04-17T06:28:07.420Z,24.40
2023-04-17T06:30:35.742Z,24.77
2023-04-17T06:33:04.838Z,25.38
2023-04-17T06:35:36.921Z,23.63
2023-04-17T06:38:20.543Z,22.05
2023-04-17T06:40:48.121Z,22.70
2023-04-17T06:43:18.428Z,21.75
2023-04-17T06:45:45.371Z,23.15
2023-04-17T06:48:12.256Z,23.33
2023-04-17T06:50:39.152Z,21.60
2023-04-17T06:53:06.978Z,22.17
2023-04-17T06:55:33.932Z,23.65
2023-04-17T06:58:00.995Z,24.05
2023-04-17T07:00:27.923Z,23.80
2023-04-17T07:02:54.941Z,23.45
2023-04-17T07:05:22.068Z,23.80
2023-04-17T07:07:48.822Z,24.02
2023-04-17T07:10:16.048Z,23.90
2023-04-17T07:12:43.032Z,24.17
2023-04-17T07:15:10.408Z,24.50
2023-04-17T07:17:37.711Z,24.87
2023-04-17T07:20:08.288Z,23.48
2023-04-17T07:22:35.132Z,25.50
2023-04-17T07:25:02.138Z,23.73
2023-04-17T07:27:29.127Z,23.20
2023-04-17T07:29:56.454Z,23.07
2023-04-17T07:32:28.026Z,23.13
2023-04-17T07:34:54.971Z,22.58
2023-04-17T07:37:21.754Z,21.60
2023-04-17T07:39:50.335Z,22.58
2023-04-17T07:42:17.338Z,23.80
2023-04-17T07:44:44.419Z,25.05
2023-04-17T07:47:11.597Z,25.38
2023-04-17T07:49:40.409Z,25.58
2023-04-17T07:52:08.305Z,23.25
2023-04-17T07:54:35.596Z,23.47
2023-04-17T07:57:03.668Z,23.88
2023-04-17T07:59:30.874Z,24.65
2023-04-17T08:01:57.906Z,23.75
2023-04-17T08:04:26.188Z,25.17
2023-04-17T08:06:53.534Z,23.77
2023-04-17T08:09:23.207Z,24.77
2023-04-17T08:11:57.033Z,24.92
2023-04-17T08:14:25.464Z,24.95
2023-04-17T08:16:52.721Z,24.42
2023-04-17T08:19:19.701Z,23.23
2023-04-17T08:21:50.675Z,25.38
2023-04-17T08:24:19.734Z,25.27
2023-04-17T08:26:47.810Z,24.83
2023-04-17T08:29:15.116Z,23.23
2023-04-17T08:31:42.526Z,25.33
2023-04-17T08:34:14.955Z,25.42
2023-04-17T08:36:43.100Z,23.92
2023-04-17T08:39:14.784Z,23.60
2023-04-17T08:41:51.058Z,23.42
2023-04-17T08:44:21.292Z,25.13
2023-04-17T08:46:49.523Z,24.20
2023-04-17T08:49:16.572Z,23.35
2023-04-17T08:51:43.417Z,24.38
2023-04-17T08:54:12.711Z,22.60
2023-04-17T08:56:39.552Z,21.33
2023-04-17T08:59:06.536Z,22.48
2023-04-17T09:01:34.772Z,21.95
2023-04-17T09:04:01.988Z,23.02
2023-04-17T09:06:29.719Z,20.60
2023-04-17T09:08:57.680Z,21.77
2023-04-17T09:11:25.383Z,22.83
2023-04-17T09:13:53.000Z,21.52
2023-04-17T09:16:20.247Z,22.88
2023-04-17T09:18:48.017Z,21.85
2023-04-17T09:21:19.790Z,21.57
2023-04-17T09:23:55.562Z,22.13
2023-04-17T09:26:27.535Z,21.48
2023-04-17T09:29:11.248Z,21.55
2023-04-17T09:31:43.206Z,21.10
2023-04-17T09:34:14.660Z,21.77
2023-04-17T09:36:43.524Z,22.05
2023-04-17T09:39:26.561Z,19.45
2023-04-17T09:42:04.450Z,21.20
2023-04-17T09:44:31.724Z,22.38
2023-04-17T09:47:01.406Z,20.37
2023-04-17T09:49:44.719Z,21.50
2023-04-17T09:52:13.931Z,22.00
2023-04-17T09:54:42.871Z,21.08
2023-04-17T09:57:10.875Z,19.85
2023-04-17T09:59:45.737Z,22.10
2023-04-17T10:02:15.134Z,21.13
2023-04-17T10:04:43.907Z,20.23
2023-04-17T10:07:12.720Z,20.08
2023-04-17T10:09:41.859Z,22.02
2023-04-17T10:12:16.874Z,21.60
2023-04-17T10:14:48.286Z,21.38
2023-04-17T10:17:31.529Z,20.15
2023-04-17T10:20:20.185Z,21.92
2023-04-17T10:22:54.848Z,20.95
2023-04-17T10:25:27.338Z,20.70
2023-04-17T10:28:01.293Z,19.92
2023-04-17T10:30:49.912Z,20.10
2023-04-17T10:33:20.002Z,20.67
2023-04-17T10:35:47.397Z,20.25
2023-04-17T10:38:16.409Z,20.33
2023-04-17T10:40:44.759Z,18.92
2023-04-17T10:43:17.644Z,22.23
2023-04-17T10:46:04.058Z,20.77
2023-04-17T10:48:49.682Z,20.55
2023-04-17T10:51:32.168Z,19.90
2023-04-17T10:54:06.459Z,18.58
2023-04-17T10:56:48.596Z,20.40
2023-04-17T10:59:20.734Z,20.40
2023-04-17T11:01:47.750Z,20.88
2023-04-17T11:04:21.414Z,21.43
2023-04-17T11:06:48.551Z,20.42
2023-04-17T11:09:16.211Z,18.20
2023-04-17T11:11:45.237Z,19.73
2023-04-17T11:14:20.720Z,19.00
2023-04-17T11:16:49.794Z,19.57
2023-04-17T11:19:24.566Z,20.02
2023-04-17T11:21:53.870Z,18.90
2023-04-17T11:24:26.930Z,19.05
2023-04-17T11:26:54.736Z,22.05
2023-04-17T11:29:23.602Z,19.87
2023-04-17T11:31:52.732Z,20.05
2023-04-17T11:34:20.494Z,21.30
2023-04-17T11:37:00.709Z,19.52
2023-04-17T11:39:34.442Z,19.70
2023-04-17T11:42:05.346Z,20.87
2023-04-17T11:44:32.614Z,21.13
2023-04-17T11:46:59.585Z,21.52
2023-04-17T11:49:37.499Z,21.20
2023-04-17T11:52:05.982Z,19.92
2023-04-17T11:54:37.797Z,21.00
2023-04-17T11:57:07.733Z,19.85
2023-04-17T11:59:37.370Z,20.00
2023-04-17T12:02:07.349Z,20.67
2023-04-17T12:04:36.395Z,20.92
2023-04-17T12:07:08.010Z,20.20
2023-04-17T12:09:35.925Z,20.80
2023-04-17T12:12:07.195Z,21.10
2023-04-17T14:40:10.454Z,13.75
2023-04-17T14:42:53.540Z,13.25
2023-04-17T14:45:26.654Z,12.20
2023-04-17T14:47:56.097Z,11.65
2023-04-17T14:50:26.596Z,11.00
2023-04-17T14:52:56.388Z,10.68
2023-04-17T14:55:24.845Z,11.07
2023-04-17T14:57:53.255Z,10.18
2023-04-17T15:00:21.708Z,10.68
2023-04-17T15:02:50.082Z,11.00
2023-04-17T15:05:21.569Z,11.80
2023-04-17T15:07:52.190Z,10.77
2023-04-17T15:10:20.880Z,11.35
2023-04-17T15:12:48.429Z,10.60
2023-04-17T15:15:16.515Z,11.17
2023-04-17T15:17:45.878Z,11.15
2023-04-17T15:20:15.725Z,14.98
2023-04-17T15:22:45.936Z,14.48
2023-04-17T15:25:13.362Z,15.20
2023-04-17T15:27:41.164Z,16.97
2023-04-17T15:30:09.850Z,17.58
2023-04-17T15:32:37.583Z,16.38
2023-04-17T15:35:06.284Z,17.17
2023-04-17T15:37:35.813Z,16.38
2023-04-17T15:40:05.150Z,17.77
2023-04-17T15:42:33.969Z,18.13
2023-04-17T15:45:02.937Z,17.27
2023-04-17T15:47:33.747Z,15.98
2023-04-17T15:50:01.698Z,16.33
2023-04-17T15:52:29.032Z,19.43
2023-04-17T15:55:00.686Z,17.63
2023-04-17T15:57:28.463Z,15.73
2023-04-17T15:59:56.230Z,14.93
2023-04-17T16:02:23.858Z,16.75
2023-04-17T16:04:52.286Z,16.53
2023-04-17T16:07:20.514Z,15.98
2023-04-17T16:09:48.462Z,16.60
2023-04-17T16:12:15.934Z,16.60
2023-04-17T16:14:49.345Z,15.32
2023-04-17T16:17:24.064Z,16.63
2023-04-17T16:19:54.573Z,16.88
2023-04-17T16:22:22.082Z,16.98
2023-04-17T16:24:49.399Z,16.20
2023-04-17T16:27:17.446Z,17.25
2023-04-17T16:29:46.980Z,15.87
2023-04-17T16:32:15.162Z,15.30
2023-04-17T16:34:42.601Z,13.55
2023-04-17T16:37:10.940Z,14.32
2023-04-17T16:39:46.182Z,15.15
2023-04-17T16:42:13.597Z,13.63
2023-04-17T16:44:41.340Z,13.95
2023-04-17T16:47:13.989Z,11.95
2023-04-17T16:49:43.083Z,13.13
2023-04-17T16:52:13.342Z,13.05
2023-04-17T16:54:41.103Z,13.47
2023-04-17T16:57:09.114Z,12.45
2023-04-17T16:59:37.012Z,14.10
2023-04-17T17:02:05.153Z,14.27
2023-04-17T17:04:35.478Z,13.55
2023-04-17T17:07:03.258Z,14.07
2023-04-17T17:09:31.538Z,12.40
2023-04-17T17:11:58.428Z,14.82
2023-04-17T17:14:25.847Z,14.90
2023-04-17T17:16:53.331Z,13.85
2023-04-17T17:19:21.090Z,13.27
2023-04-17T17:21:48.199Z,13.52
2023-04-17T17:24:15.159Z,14.05
2023-04-17T17:26:42.131Z,13.43
2023-04-17T17:29:09.145Z,13.15
2023-04-17T17:31:37.512Z,14.07
2023-04-17T17:34:16.709Z,13.00
2023-04-17T17:36:52.127Z,13.50
2023-04-17T17:39:21.212Z,14.15
2023-04-17T17:41:48.684Z,13.43
2023-04-17T17:44:15.887Z,14.53
2023-04-17T17:46:43.576Z,15.35
2023-04-17T17:49:11.066Z,14.75
2023-04-17T17:51:38.178Z,14.13
2023-04-17T17:54:05.270Z,15.88
2023-04-17T17:56:35.875Z,15.23
2023-04-17T17:59:03.045Z,14.90
2023-04-17T18:01:30.436Z,15.95
2023-04-17T18:04:01.907Z,14.85
2023-04-17T18:06:29.179Z,15.35
2023-04-17T18:08:57.923Z,15.63
2023-04-17T18:11:25.318Z,13.73
2023-04-17T18:13:52.410Z,14.85
2023-04-17T18:16:20.326Z,16.13
2023-04-17T18:18:47.620Z,16.23
2023-04-17T18:21:15.856Z,16.17
2023-04-17T18:23:43.111Z,14.77
2023-04-17T18:26:13.036Z,15.45
2023-04-17T18:28:44.545Z,15.98
2023-04-17T18:31:12.574Z,16.17
2023-04-17T18:33:40.018Z,15.80
2023-04-17T18:36:07.373Z,16.65
2023-04-17T18:38:35.077Z,16.67
2023-04-17T18:41:02.639Z,17.52
2023-04-17T18:43:29.570Z,16.55
2023-04-17T18:45:56.604Z,14.03
2023-04-17T18:48:25.123Z,16.17
2023-04-17T18:50:52.325Z,17.50
2023-04-17T18:53:19.222Z,18.05
2023-04-17T18:55:46.407Z,18.30
2023-04-17T18:58:13.503Z,19.57
2023-04-17T19:00:40.676Z,17.48
2023-04-17T19:03:07.783Z,25.67
2023-04-17T19:05:34.908Z,19.92
2023-04-17T19:08:01.931Z,18.60
2023-04-17T19:10:30.048Z,19.57
2023-04-17T19:12:56.941Z,20.42
2023-04-17T19:15:27.071Z,19.30
2023-04-17T19:17:54.135Z,20.02
2023-04-17T19:20:22.793Z,20.30
2023-04-17T19:22:49.727Z,20.77
2023-04-17T19:25:16.835Z,23.55
2023-04-17T19:27:43.911Z,24.45
2023-04-17T19:30:11.708Z,21.30
2023-04-17T19:32:38.857Z,26.83
2023-04-17T19:35:06.880Z,21.40
2023-04-17T19:37:37.294Z,20.23
2023-04-17T19:40:14.239Z,20.88
2023-04-17T19:42:48.805Z,19.00
2023-04-17T19:45:16.026Z,19.20
2023-04-17T19:47:43.082Z,20.67
2023-04-17T19:50:10.736Z,20.20
2023-04-17T19:52:43.248Z,18.90
2023-04-17T19:55:10.352Z,20.30
2023-04-17T19:57:39.541Z,20.30
2023-04-17T20:00:14.666Z,19.43
2023-04-17T20:02:43.892Z,19.10
2023-04-17T20:05:10.835Z,19.75
2023-04-17T20:07:39.813Z,18.30
2023-04-17T20:10:17.049Z,19.55
2023-04-17T20:12:44.029Z,18.07
2023-04-17T20:15:22.227Z,18.30
2023-04-17T20:17:49.574Z,20.83
2023-04-17T20:20:17.274Z,19.90
2023-04-17T20:22:44.346Z,19.25
2023-04-17T20:25:11.246Z,19.00
2023-04-17T20:27:38.363Z,19.83
2023-04-17T20:30:05.836Z,20.25
2023-04-17T20:32:32.849Z,21.05
2023-04-17T20:35:00.392Z,20.08
2023-04-17T20:37:27.269Z,20.43
2023-04-17T20:39:54.757Z,21.50
2023-04-17T20:42:21.671Z,21.13
2023-04-17T20:44:48.532Z,19.98
2023-04-17T20:47:43.519Z,21.27
2023-04-17T20:50:21.420Z,20.20
2023-04-17T20:52:48.994Z,21.95
2023-04-17T20:55:18.280Z,20.73
2023-04-17T20:57:45.205Z,21.60
2023-04-17T21:00:12.526Z,22.30
2023-04-17T21:02:39.597Z,20.83
2023-04-17T21:05:07.989Z,20.63
2023-04-17T21:07:35.994Z,20.55
2023-04-17T21:10:03.039Z,19.73
2023-04-17T21:12:32.721Z,19.95
2023-04-17T21:14:59.727Z,19.77
2023-04-17T21:17:26.810Z,20.67
2023-04-17T21:19:56.006Z,21.27
2023-04-17T21:22:23.287Z,20.77
2023-04-17T21:24:50.184Z,20.15
2023-04-17T21:27:17.112Z,19.57
2023-04-17T21:29:44.019Z,19.55
2023-04-17T21:32:10.968Z,20.33
2023-04-17T21:34:37.877Z,21.02
2023-04-17T21:37:05.108Z,19.92
2023-04-17T21:39:33.304Z,18.57
2023-04-17T21:42:01.994Z,19.95
2023-04-17T21:44:29.263Z,19.95
2023-04-17T21:46:56.340Z,19.75
2023-04-17T21:49:24.014Z,19.05
2023-04-17T21:51:51.002Z,17.40
2023-04-17T21:54:17.975Z,18.40
2023-04-17T21:56:44.828Z,18.88
2023-04-17T21:59:11.939Z,18.35
2023-04-17T22:01:38.876Z,17.38
2023-04-17T22:04:05.883Z,20.30
2023-04-17T22:06:36.919Z,19.55
2023-04-17T22:09:04.975Z,17.98
2023-04-17T22:11:32.720Z,18.48
2023-04-17T22:13:59.748Z,17.92
2023-04-17T22:16:26.719Z,16.70
2023-04-17T22:18:54.316Z,18.88
2023-04-17T22:21:21.559Z,18.40
2023-04-17T22:23:48.649Z,19.17
2023-04-17T22:26:15.720Z,17.50
2023-04-17T22:28:42.534Z,18.37
2023-04-17T22:31:09.957Z,18.00
2023-04-17T22:33:36.862Z,17.52
2023-04-17T22:36:04.186Z,16.75
2023-04-17T22:38:31.023Z,17.65
2023-04-17T22:40:57.895Z,16.43
2023-04-17T22:43:24.853Z,18.33
2023-04-17T22:45:51.759Z,17.73
2023-04-17T22:48:18.833Z,17.90
2023-04-17T22:50:45.771Z,17.23
2023-04-17T22:53:12.731Z,18.00
2023-04-17T22:55:42.090Z,18.00
2023-04-17T22:58:08.946Z,19.23
2023-04-17T23:00:36.511Z,19.30
2023-04-17T23:03:03.525Z,18.77
2023-04-17T23:05:30.682Z,17.90
2023-04-17T23:07:57.575Z,17.80
2023-04-17T23:10:24.465Z,18.52
2023-04-17T23:12:51.467Z,17.40
2023-04-17T23:15:18.296Z,18.75
2023-04-17T23:17:45.681Z,18.40
2023-04-17T23:20:13.144Z,18.40
2023-04-17T23:22:39.984Z,17.55
2023-04-17T23:25:07.485Z,18.33
2023-04-17T23:27:34.681Z,18.63
2023-04-17T23:30:01.508Z,19.57
2023-04-17T23:32:28.391Z,18.88
2023-04-17T23:34:55.285Z,16.98
2023-04-17T23:37:22.372Z,17.77
2023-04-17T23:39:49.395Z,17.40
2023-04-17T23:42:16.381Z,18.77
2023-04-17T23:44:43.407Z,19.05
2023-04-17T23:47:11.472Z,17.50
2023-04-17T23:49:38.925Z,17.42
2023-04-17T23:52:05.993Z,17.08
2023-04-17T23:54:33.029Z,18.03
2023-04-17T23:56:59.998Z,17.55
2023-04-17T23:59:26.803Z,18.35
